sensor_id;sensor_type;location;lat;lon;timestamp;P1;durP1;ratioP1;P2;durP2;ratioP2
71814;SDS011;59659;41.520;23.794;2022-09-02T00:00:51;19.57;;;9.73;;
71814;SDS011;59659;41.520;23.794;2022-09-02T00:02:03;15.40;;;9.30;;
71814;SDS011;59659;41.520;23.794;2022-09-02T00:03:15;16.63;;;9.10;;
71814;SDS011;59659;41.520;23.794;2022-09-02T00:04:27;14.23;;;9.40;;
71814;SDS011;59659;41.520;23.794;2022-09-02T00:05:39;18.10;;;9.27;;
71814;SDS011;59659;41.520;23.794;2022-09-02T00:06:51;17.37;;;9.27;;
71814;SDS011;59659;41.520;23.794;2022-09-02T00:08:04;14.80;;;8.70;;
71814;SDS011;59659;41.520;23.794;2022-09-02T00:09:17;13.60;;;8.87;;
71814;SDS011;59659;41.520;23.794;2022-09-02T00:10:29;18.07;;;8.80;;
71814;SDS011;59659;41.520;23.794;2022-09-02T00:11:41;20.23;;;9.90;;
71814;SDS011;59659;41.520;23.794;2022-09-02T00:12:56;19.83;;;8.63;;
71814;SDS011;59659;41.520;23.794;2022-09-02T00:14:09;14.73;;;9.40;;
71814;SDS011;59659;41.520;23.794;2022-09-02T00:15:21;15.93;;;8.67;;
71814;SDS011;59659;41.520;23.794;2022-09-02T00:16:33;16.03;;;8.57;;
71814;SDS011;59659;41.520;23.794;2022-09-02T00:17:47;17.83;;;9.20;;
71814;SDS011;59659;41.520;23.794;2022-09-02T00:18:59;15.40;;;9.10;;
71814;SDS011;59659;41.520;23.794;2022-09-02T00:20:12;15.33;;;9.57;;
71814;SDS011;59659;41.520;23.794;2022-09-02T00:21:24;17.40;;;10.20;;
71814;SDS011;59659;41.520;23.794;2022-09-02T00:22:37;17.33;;;10.27;;
71814;SDS011;59659;41.520;23.794;2022-09-02T00:23:48;14.87;;;9.33;;
71814;SDS011;59659;41.520;23.794;2022-09-02T00:25:00;16.67;;;9.73;;
71814;SDS011;59659;41.520;23.794;2022-09-02T00:26:12;18.03;;;9.40;;
71814;SDS011;59659;41.520;23.794;2022-09-02T00:27:23;17.80;;;10.00;;
71814;SDS011;59659;41.520;23.794;2022-09-02T00:28:35;16.53;;;9.73;;
71814;SDS011;59659;41.520;23.794;2022-09-02T00:29:47;17.90;;;10.33;;
71814;SDS011;59659;41.520;23.794;2022-09-02T00:30:59;18.93;;;10.10;;
71814;SDS011;59659;41.520;23.794;2022-09-02T00:32:11;20.00;;;9.30;;
71814;SDS011;59659;41.520;23.794;2022-09-02T00:33:22;15.63;;;10.03;;
71814;SDS011;59659;41.520;23.794;2022-09-02T00:34:34;17.67;;;9.53;;
71814;SDS011;59659;41.520;23.794;2022-09-02T00:35:46;14.73;;;8.30;;
71814;SDS011;59659;41.520;23.794;2022-09-02T00:36:57;17.63;;;8.60;;
71814;SDS011;59659;41.520;23.794;2022-09-02T00:38:09;16.17;;;9.30;;
71814;SDS011;59659;41.520;23.794;2022-09-02T00:39:20;21.80;;;10.13;;
71814;SDS011;59659;41.520;23.794;2022-09-02T00:40:32;14.00;;;8.93;;
71814;SDS011;59659;41.520;23.794;2022-09-02T00:41:44;13.90;;;9.40;;
71814;SDS011;59659;41.520;23.794;2022-09-02T00:42:56;16.00;;;9.73;;
71814;SDS011;59659;41.520;23.794;2022-09-02T00:44:09;23.07;;;9.97;;
71814;SDS011;59659;41.520;23.794;2022-09-02T00:45:22;15.37;;;9.13;;
71814;SDS011;59659;41.520;23.794;2022-09-02T00:46:33;14.83;;;9.60;;
71814;SDS011;59659;41.520;23.794;2022-09-02T00:47:45;14.53;;;9.10;;
71814;SDS011;59659;41.520;23.794;2022-09-02T00:50:09;14.77;;;9.63;;
71814;SDS011;59659;41.520;23.794;2022-09-02T00:51:21;18.07;;;9.47;;
71814;SDS011;59659;41.520;23.794;2022-09-02T00:52:34;15.73;;;9.30;;
71814;SDS011;59659;41.520;23.794;2022-09-02T00:53:48;16.07;;;9.37;;
71814;SDS011;59659;41.520;23.794;2022-09-02T00:55:20;16.20;;;9.17;;
71814;SDS011;59659;41.520;23.794;2022-09-02T00:56:31;14.17;;;9.10;;
71814;SDS011;59659;41.520;23.794;2022-09-02T00:57:48;17.97;;;10.00;;
71814;SDS011;59659;41.520;23.794;2022-09-02T00:59:00;15.80;;;8.80;;
71814;SDS011;59659;41.520;23.794;2022-09-02T01:00:14;20.03;;;10.00;;
71814;SDS011;59659;41.520;23.794;2022-09-02T01:01:29;17.23;;;9.80;;
71814;SDS011;59659;41.520;23.794;2022-09-02T01:02:41;16.63;;;11.20;;
71814;SDS011;59659;41.520;23.794;2022-09-02T01:03:52;17.57;;;9.33;;
71814;SDS011;59659;41.520;23.794;2022-09-02T01:05:06;23.53;;;11.37;;
71814;SDS011;59659;41.520;23.794;2022-09-02T01:06:21;16.43;;;10.57;;
71814;SDS011;59659;41.520;23.794;2022-09-02T01:07:34;16.40;;;10.23;;
71814;SDS011;59659;41.520;23.794;2022-09-02T01:08:48;18.77;;;11.10;;
71814;SDS011;59659;41.520;23.794;2022-09-02T01:10:08;19.97;;;10.17;;
71814;SDS011;59659;41.520;23.794;2022-09-02T01:11:20;18.07;;;10.50;;
71814;SDS011;59659;41.520;23.794;2022-09-02T01:12:33;21.67;;;10.70;;
71814;SDS011;59659;41.520;23.794;2022-09-02T01:13:46;16.20;;;9.80;;
71814;SDS011;59659;41.520;23.794;2022-09-02T01:14:58;23.97;;;11.27;;
71814;SDS011;59659;41.520;23.794;2022-09-02T01:17:27;21.00;;;10.67;;
71814;SDS011;59659;41.520;23.794;2022-09-02T01:18:39;18.77;;;10.30;;
71814;SDS011;59659;41.520;23.794;2022-09-02T01:19:56;17.13;;;10.40;;
71814;SDS011;59659;41.520;23.794;2022-09-02T01:21:08;18.63;;;10.40;;
71814;SDS011;59659;41.520;23.794;2022-09-02T01:22:21;17.03;;;10.23;;
71814;SDS011;59659;41.520;23.794;2022-09-02T01:23:33;21.73;;;11.83;;
71814;SDS011;59659;41.520;23.794;2022-09-02T01:24:45;18.73;;;11.23;;
71814;SDS011;59659;41.520;23.794;2022-09-02T01:25:57;20.63;;;10.90;;
71814;SDS011;59659;41.520;23.794;2022-09-02T01:27:08;27.07;;;10.63;;
71814;SDS011;59659;41.520;23.794;2022-09-02T01:28:24;22.60;;;10.47;;
71814;SDS011;59659;41.520;23.794;2022-09-02T01:29:38;18.67;;;11.00;;
71814;SDS011;59659;41.520;23.794;2022-09-02T01:30:50;25.87;;;11.27;;
71814;SDS011;59659;41.520;23.794;2022-09-02T01:32:02;17.20;;;10.70;;
71814;SDS011;59659;41.520;23.794;2022-09-02T01:33:14;22.87;;;11.20;;
71814;SDS011;59659;41.520;23.794;2022-09-02T01:34:26;20.23;;;11.77;;
71814;SDS011;59659;41.520;23.794;2022-09-02T01:35:39;18.47;;;10.93;;
71814;SDS011;59659;41.520;23.794;2022-09-02T01:36:50;16.57;;;9.63;;
71814;SDS011;59659;41.520;23.794;2022-09-02T01:38:02;18.73;;;10.93;;
71814;SDS011;59659;41.520;23.794;2022-09-02T01:39:14;18.13;;;10.23;;
71814;SDS011;59659;41.520;23.794;2022-09-02T01:40:26;18.07;;;10.47;;
71814;SDS011;59659;41.520;23.794;2022-09-02T01:41:38;23.20;;;11.10;;
71814;SDS011;59659;41.520;23.794;2022-09-02T01:42:52;19.13;;;10.63;;
71814;SDS011;59659;41.520;23.794;2022-09-02T01:44:05;17.43;;;10.73;;
71814;SDS011;59659;41.520;23.794;2022-09-02T01:45:16;17.17;;;10.10;;
71814;SDS011;59659;41.520;23.794;2022-09-02T01:46:28;17.23;;;10.13;;
71814;SDS011;59659;41.520;23.794;2022-09-02T01:47:39;14.50;;;9.10;;
71814;SDS011;59659;41.520;23.794;2022-09-02T01:48:51;16.30;;;10.13;;
71814;SDS011;59659;41.520;23.794;2022-09-02T01:50:06;17.67;;;10.47;;
71814;SDS011;59659;41.520;23.794;2022-09-02T01:51:18;19.47;;;11.27;;
71814;SDS011;59659;41.520;23.794;2022-09-02T01:52:30;21.50;;;11.23;;
71814;SDS011;59659;41.520;23.794;2022-09-02T01:53:42;17.17;;;9.70;;
71814;SDS011;59659;41.520;23.794;2022-09-02T01:54:54;23.73;;;10.50;;
71814;SDS011;59659;41.520;23.794;2022-09-02T01:56:06;19.73;;;10.77;;
71814;SDS011;59659;41.520;23.794;2022-09-02T01:57:17;19.83;;;10.10;;
71814;SDS011;59659;41.520;23.794;2022-09-02T01:58:29;15.43;;;9.80;;
71814;SDS011;59659;41.520;23.794;2022-09-02T01:59:40;17.17;;;10.13;;
71814;SDS011;59659;41.520;23.794;2022-09-02T02:00:53;19.30;;;10.63;;
71814;SDS011;59659;41.520;23.794;2022-09-02T02:02:05;19.53;;;10.43;;
71814;SDS011;59659;41.520;23.794;2022-09-02T02:03:17;18.53;;;10.33;;
71814;SDS011;59659;41.520;23.794;2022-09-02T02:04:29;18.20;;;10.30;;
71814;SDS011;59659;41.520;23.794;2022-09-02T02:05:41;17.03;;;10.33;;
71814;SDS011;59659;41.520;23.794;2022-09-02T02:06:53;16.63;;;11.00;;
71814;SDS011;59659;41.520;23.794;2022-09-02T02:08:05;16.70;;;10.13;;
71814;SDS011;59659;41.520;23.794;2022-09-02T02:09:16;18.50;;;10.20;;
71814;SDS011;59659;41.520;23.794;2022-09-02T02:10:28;16.13;;;10.33;;
71814;SDS011;59659;41.520;23.794;2022-09-02T02:11:40;21.70;;;10.77;;
71814;SDS011;59659;41.520;23.794;2022-09-02T02:12:51;17.80;;;10.53;;
71814;SDS011;59659;41.520;23.794;2022-09-02T02:14:04;19.27;;;10.70;;
71814;SDS011;59659;41.520;23.794;2022-09-02T02:15:17;19.53;;;9.63;;
71814;SDS011;59659;41.520;23.794;2022-09-02T02:16:28;19.33;;;10.97;;
71814;SDS011;59659;41.520;23.794;2022-09-02T02:17:40;18.10;;;10.57;;
71814;SDS011;59659;41.520;23.794;2022-09-02T02:18:52;17.63;;;10.43;;
71814;SDS011;59659;41.520;23.794;2022-09-02T02:20:04;19.90;;;10.00;;
71814;SDS011;59659;41.520;23.794;2022-09-02T02:21:16;18.23;;;10.43;;
71814;SDS011;59659;41.520;23.794;2022-09-02T02:22:27;13.70;;;9.47;;
71814;SDS011;59659;41.520;23.794;2022-09-02T02:23:39;17.60;;;10.73;;
71814;SDS011;59659;41.520;23.794;2022-09-02T02:24:50;15.73;;;9.57;;
71814;SDS011;59659;41.520;23.794;2022-09-02T02:26:02;16.50;;;9.33;;
71814;SDS011;59659;41.520;23.794;2022-09-02T02:27:13;14.83;;;9.83;;
71814;SDS011;59659;41.520;23.794;2022-09-02T02:28:25;15.40;;;9.33;;
71814;SDS011;59659;41.520;23.794;2022-09-02T02:29:37;19.07;;;9.60;;
71814;SDS011;59659;41.520;23.794;2022-09-02T02:30:48;21.40;;;10.17;;
71814;SDS011;59659;41.520;23.794;2022-09-02T02:32:00;13.63;;;8.90;;
71814;SDS011;59659;41.520;23.794;2022-09-02T02:33:11;20.80;;;9.90;;
71814;SDS011;59659;41.520;23.794;2022-09-02T02:34:23;19.37;;;10.23;;
71814;SDS011;59659;41.520;23.794;2022-09-02T02:35:35;18.37;;;9.57;;
71814;SDS011;59659;41.520;23.794;2022-09-02T02:36:47;13.33;;;9.00;;
71814;SDS011;59659;41.520;23.794;2022-09-02T02:37:58;14.17;;;8.97;;
71814;SDS011;59659;41.520;23.794;2022-09-02T02:39:14;14.60;;;9.50;;
71814;SDS011;59659;41.520;23.794;2022-09-02T02:40:25;20.70;;;11.13;;
71814;SDS011;59659;41.520;23.794;2022-09-02T02:41:37;17.67;;;9.53;;
71814;SDS011;59659;41.520;23.794;2022-09-02T02:42:49;14.97;;;8.87;;
71814;SDS011;59659;41.520;23.794;2022-09-02T02:44:03;19.73;;;10.40;;
71814;SDS011;59659;41.520;23.794;2022-09-02T02:45:15;13.97;;;9.07;;
71814;SDS011;59659;41.520;23.794;2022-09-02T02:46:26;15.73;;;9.27;;
71814;SDS011;59659;41.520;23.794;2022-09-02T02:47:41;13.90;;;8.60;;
71814;SDS011;59659;41.520;23.794;2022-09-02T02:48:53;15.30;;;9.80;;
71814;SDS011;59659;41.520;23.794;2022-09-02T02:50:06;23.60;;;9.33;;
71814;SDS011;59659;41.520;23.794;2022-09-02T02:51:17;18.43;;;10.67;;
71814;SDS011;59659;41.520;23.794;2022-09-02T02:52:29;14.17;;;9.77;;
71814;SDS011;59659;41.520;23.794;2022-09-02T02:53:41;17.40;;;9.40;;
71814;SDS011;59659;41.520;23.794;2022-09-02T02:54:52;16.77;;;9.37;;
71814;SDS011;59659;41.520;23.794;2022-09-02T02:56:04;15.97;;;9.50;;
71814;SDS011;59659;41.520;23.794;2022-09-02T02:57:16;16.23;;;9.60;;
71814;SDS011;59659;41.520;23.794;2022-09-02T02:58:27;14.47;;;9.70;;
71814;SDS011;59659;41.520;23.794;2022-09-02T02:59:39;17.13;;;9.17;;
71814;SDS011;59659;41.520;23.794;2022-09-02T03:00:50;19.33;;;9.70;;
71814;SDS011;59659;41.520;23.794;2022-09-02T03:02:03;21.03;;;10.53;;
71814;SDS011;59659;41.520;23.794;2022-09-02T03:03:15;17.80;;;10.63;;
71814;SDS011;59659;41.520;23.794;2022-09-02T03:04:30;16.57;;;10.00;;
71814;SDS011;59659;41.520;23.794;2022-09-02T03:05:41;19.97;;;9.30;;
71814;SDS011;59659;41.520;23.794;2022-09-02T03:06:53;17.53;;;10.03;;
71814;SDS011;59659;41.520;23.794;2022-09-02T03:08:05;13.33;;;9.83;;
71814;SDS011;59659;41.520;23.794;2022-09-02T03:09:17;22.60;;;10.20;;
71814;SDS011;59659;41.520;23.794;2022-09-02T03:10:31;14.47;;;9.63;;
71814;SDS011;59659;41.520;23.794;2022-09-02T03:11:42;13.80;;;9.43;;
71814;SDS011;59659;41.520;23.794;2022-09-02T03:12:54;20.17;;;9.93;;
71814;SDS011;59659;41.520;23.794;2022-09-02T03:14:06;16.43;;;9.73;;
71814;SDS011;59659;41.520;23.794;2022-09-02T03:15:18;16.80;;;10.87;;
71814;SDS011;59659;41.520;23.794;2022-09-02T03:16:32;14.27;;;9.40;;
71814;SDS011;59659;41.520;23.794;2022-09-02T03:17:44;15.37;;;9.67;;
71814;SDS011;59659;41.520;23.794;2022-09-02T03:18:56;17.30;;;9.90;;
71814;SDS011;59659;41.520;23.794;2022-09-02T03:20:07;21.30;;;8.87;;
71814;SDS011;59659;41.520;23.794;2022-09-02T03:21:19;13.10;;;8.33;;
71814;SDS011;59659;41.520;23.794;2022-09-02T03:22:31;15.47;;;9.87;;
71814;SDS011;59659;41.520;23.794;2022-09-02T03:23:42;20.87;;;10.03;;
71814;SDS011;59659;41.520;23.794;2022-09-02T03:24:54;18.87;;;10.07;;
71814;SDS011;59659;41.520;23.794;2022-09-02T03:26:10;14.50;;;9.00;;
71814;SDS011;59659;41.520;23.794;2022-09-02T03:27:22;12.63;;;8.93;;
71814;SDS011;59659;41.520;23.794;2022-09-02T03:28:33;12.97;;;8.97;;
71814;SDS011;59659;41.520;23.794;2022-09-02T03:29:45;14.37;;;9.13;;
71814;SDS011;59659;41.520;23.794;2022-09-02T03:30:56;17.27;;;9.67;;
71814;SDS011;59659;41.520;23.794;2022-09-02T03:32:08;14.87;;;9.17;;
71814;SDS011;59659;41.520;23.794;2022-09-02T03:33:19;20.07;;;10.60;;
71814;SDS011;59659;41.520;23.794;2022-09-02T03:34:31;20.90;;;11.97;;
71814;SDS011;59659;41.520;23.794;2022-09-02T03:35:43;23.13;;;13.33;;
71814;SDS011;59659;41.520;23.794;2022-09-02T03:36:55;29.83;;;15.47;;
71814;SDS011;59659;41.520;23.794;2022-09-02T03:38:07;29.83;;;14.70;;
71814;SDS011;59659;41.520;23.794;2022-09-02T03:39:19;26.27;;;14.97;;
71814;SDS011;59659;41.520;23.794;2022-09-02T03:40:31;30.43;;;16.73;;
71814;SDS011;59659;41.520;23.794;2022-09-02T03:41:43;26.37;;;15.10;;
71814;SDS011;59659;41.520;23.794;2022-09-02T03:42:55;21.57;;;13.77;;
71814;SDS011;59659;41.520;23.794;2022-09-02T03:44:10;25.43;;;13.07;;
71814;SDS011;59659;41.520;23.794;2022-09-02T03:45:22;17.03;;;10.60;;
71814;SDS011;59659;41.520;23.794;2022-09-02T03:46:34;20.77;;;10.93;;
71814;SDS011;59659;41.520;23.794;2022-09-02T03:47:46;16.63;;;9.93;;
71814;SDS011;59659;41.520;23.794;2022-09-02T03:49:04;15.60;;;10.07;;
71814;SDS011;59659;41.520;23.794;2022-09-02T03:50:16;21.30;;;10.23;;
71814;SDS011;59659;41.520;23.794;2022-09-02T03:51:28;17.87;;;9.40;;
71814;SDS011;59659;41.520;23.794;2022-09-02T03:52:40;17.70;;;10.03;;
71814;SDS011;59659;41.520;23.794;2022-09-02T03:53:51;16.00;;;10.20;;
71814;SDS011;59659;41.520;23.794;2022-09-02T03:55:04;17.03;;;9.93;;
71814;SDS011;59659;41.520;23.794;2022-09-02T03:56:17;22.93;;;10.60;;
71814;SDS011;59659;41.520;23.794;2022-09-02T03:57:28;15.67;;;9.90;;
71814;SDS011;59659;41.520;23.794;2022-09-02T03:58:41;12.93;;;8.63;;
71814;SDS011;59659;41.520;23.794;2022-09-02T03:59:52;17.00;;;9.33;;
71814;SDS011;59659;41.520;23.794;2022-09-02T04:01:04;21.70;;;10.47;;
71814;SDS011;59659;41.520;23.794;2022-09-02T04:02:16;21.37;;;10.67;;
71814;SDS011;59659;41.520;23.794;2022-09-02T04:03:28;16.13;;;9.30;;
71814;SDS011;59659;41.520;23.794;2022-09-02T04:04:40;16.27;;;9.87;;
71814;SDS011;59659;41.520;23.794;2022-09-02T04:05:51;18.63;;;9.57;;
71814;SDS011;59659;41.520;23.794;2022-09-02T04:07:03;16.87;;;10.33;;
71814;SDS011;59659;41.520;23.794;2022-09-02T04:08:15;18.83;;;10.63;;
71814;SDS011;59659;41.520;23.794;2022-09-02T04:09:26;16.83;;;9.90;;
71814;SDS011;59659;41.520;23.794;2022-09-02T04:10:38;18.83;;;9.93;;
71814;SDS011;59659;41.520;23.794;2022-09-02T04:11:49;20.33;;;11.37;;
71814;SDS011;59659;41.520;23.794;2022-09-02T04:13:01;16.60;;;9.50;;
71814;SDS011;59659;41.520;23.794;2022-09-02T04:14:13;18.03;;;9.77;;
71814;SDS011;59659;41.520;23.794;2022-09-02T04:15:24;15.47;;;10.07;;
71814;SDS011;59659;41.520;23.794;2022-09-02T04:16:36;19.07;;;10.90;;
71814;SDS011;59659;41.520;23.794;2022-09-02T04:17:48;13.30;;;8.97;;
71814;SDS011;59659;41.520;23.794;2022-09-02T04:19:01;19.53;;;10.47;;
71814;SDS011;59659;41.520;23.794;2022-09-02T04:20:13;18.40;;;10.53;;
71814;SDS011;59659;41.520;23.794;2022-09-02T04:21:25;25.83;;;11.30;;
71814;SDS011;59659;41.520;23.794;2022-09-02T04:22:37;21.20;;;10.60;;
71814;SDS011;59659;41.520;23.794;2022-09-02T04:23:48;15.37;;;9.60;;
71814;SDS011;59659;41.520;23.794;2022-09-02T04:25:00;20.00;;;10.63;;
71814;SDS011;59659;41.520;23.794;2022-09-02T04:26:13;18.70;;;10.63;;
71814;SDS011;59659;41.520;23.794;2022-09-02T04:27:25;21.80;;;11.03;;
71814;SDS011;59659;41.520;23.794;2022-09-02T04:28:36;23.73;;;11.97;;
71814;SDS011;59659;41.520;23.794;2022-09-02T04:29:48;22.00;;;10.27;;
71814;SDS011;59659;41.520;23.794;2022-09-02T04:31:04;20.57;;;11.43;;
71814;SDS011;59659;41.520;23.794;2022-09-02T04:32:16;23.23;;;12.60;;
71814;SDS011;59659;41.520;23.794;2022-09-02T04:33:27;23.37;;;12.67;;
71814;SDS011;59659;41.520;23.794;2022-09-02T04:34:39;88.77;;;40.90;;
71814;SDS011;59659;41.520;23.794;2022-09-02T04:35:50;132.10;;;58.77;;
71814;SDS011;59659;41.520;23.794;2022-09-02T04:37:02;131.60;;;62.47;;
71814;SDS011;59659;41.520;23.794;2022-09-02T04:38:14;43.00;;;23.33;;
71814;SDS011;59659;41.520;23.794;2022-09-02T04:39:26;56.97;;;29.90;;
71814;SDS011;59659;41.520;23.794;2022-09-02T04:40:39;29.37;;;17.70;;
71814;SDS011;59659;41.520;23.794;2022-09-02T04:41:51;24.57;;;15.00;;
71814;SDS011;59659;41.520;23.794;2022-09-02T04:43:04;25.17;;;14.07;;
71814;SDS011;59659;41.520;23.794;2022-09-02T04:44:15;24.33;;;13.97;;
71814;SDS011;59659;41.520;23.794;2022-09-02T04:45:27;24.83;;;13.60;;
71814;SDS011;59659;41.520;23.794;2022-09-02T04:46:40;24.27;;;13.23;;
71814;SDS011;59659;41.520;23.794;2022-09-02T04:47:51;34.53;;;15.80;;
71814;SDS011;59659;41.520;23.794;2022-09-02T04:49:03;25.60;;;14.53;;
71814;SDS011;59659;41.520;23.794;2022-09-02T04:50:15;27.00;;;15.20;;
71814;SDS011;59659;41.520;23.794;2022-09-02T04:51:26;21.90;;;13.27;;
71814;SDS011;59659;41.520;23.794;2022-09-02T04:52:38;30.63;;;15.73;;
71814;SDS011;59659;41.520;23.794;2022-09-02T04:53:50;22.63;;;13.23;;
71814;SDS011;59659;41.520;23.794;2022-09-02T04:55:02;30.77;;;19.07;;
71814;SDS011;59659;41.520;23.794;2022-09-02T04:56:15;65.90;;;38.10;;
71814;SDS011;59659;41.520;23.794;2022-09-02T04:57:27;40.13;;;24.30;;
71814;SDS011;59659;41.520;23.794;2022-09-02T04:58:39;36.40;;;19.67;;
71814;SDS011;59659;41.520;23.794;2022-09-02T04:59:51;27.30;;;15.37;;
71814;SDS011;59659;41.520;23.794;2022-09-02T05:01:06;30.93;;;16.23;;
71814;SDS011;59659;41.520;23.794;2022-09-02T05:02:19;25.23;;;14.10;;
71814;SDS011;59659;41.520;23.794;2022-09-02T05:03:30;26.67;;;15.37;;
71814;SDS011;59659;41.520;23.794;2022-09-02T05:04:42;27.23;;;16.93;;
71814;SDS011;59659;41.520;23.794;2022-09-02T05:05:59;33.93;;;17.20;;
71814;SDS011;59659;41.520;23.794;2022-09-02T05:07:11;31.27;;;17.47;;
71814;SDS011;59659;41.520;23.794;2022-09-02T05:08:23;30.33;;;17.20;;
71814;SDS011;59659;41.520;23.794;2022-09-02T05:09:34;33.03;;;16.03;;
71814;SDS011;59659;41.520;23.794;2022-09-02T05:10:46;27.73;;;15.43;;
71814;SDS011;59659;41.520;23.794;2022-09-02T05:12:00;31.73;;;14.43;;
71814;SDS011;59659;41.520;23.794;2022-09-02T05:13:14;24.50;;;13.93;;
71814;SDS011;59659;41.520;23.794;2022-09-02T05:14:29;22.07;;;13.67;;
71814;SDS011;59659;41.520;23.794;2022-09-02T05:15:41;21.97;;;13.33;;
71814;SDS011;59659;41.520;23.794;2022-09-02T05:16:53;30.40;;;13.90;;
71814;SDS011;59659;41.520;23.794;2022-09-02T05:18:05;23.30;;;13.87;;
71814;SDS011;59659;41.520;23.794;2022-09-02T05:19:16;21.20;;;14.20;;
71814;SDS011;59659;41.520;23.794;2022-09-02T05:20:28;28.97;;;14.13;;
71814;SDS011;59659;41.520;23.794;2022-09-02T05:21:40;24.13;;;13.67;;
71814;SDS011;59659;41.520;23.794;2022-09-02T05:22:51;26.10;;;14.23;;
71814;SDS011;59659;41.520;23.794;2022-09-02T05:24:03;26.23;;;13.73;;
71814;SDS011;59659;41.520;23.794;2022-09-02T05:25:15;28.37;;;13.37;;
71814;SDS011;59659;41.520;23.794;2022-09-02T05:26:26;23.10;;;14.00;;
71814;SDS011;59659;41.520;23.794;2022-09-02T05:27:38;21.57;;;13.43;;
71814;SDS011;59659;41.520;23.794;2022-09-02T05:28:49;18.40;;;12.03;;
71814;SDS011;59659;41.520;23.794;2022-09-02T05:30:01;23.00;;;12.20;;
71814;SDS011;59659;41.520;23.794;2022-09-02T05:31:14;20.17;;;13.00;;
71814;SDS011;59659;41.520;23.794;2022-09-02T05:32:28;25.03;;;12.97;;
71814;SDS011;59659;41.520;23.794;2022-09-02T05:33:41;23.27;;;13.13;;
71814;SDS011;59659;41.520;23.794;2022-09-02T05:34:54;22.10;;;13.27;;
71814;SDS011;59659;41.520;23.794;2022-09-02T05:36:07;24.43;;;13.17;;
71814;SDS011;59659;41.520;23.794;2022-09-02T05:37:19;20.13;;;11.63;;
71814;SDS011;59659;41.520;23.794;2022-09-02T05:38:30;21.93;;;13.13;;
71814;SDS011;59659;41.520;23.794;2022-09-02T05:39:42;24.90;;;13.97;;
71814;SDS011;59659;41.520;23.794;2022-09-02T05:40:54;18.20;;;11.93;;
71814;SDS011;59659;41.520;23.794;2022-09-02T05:42:06;23.87;;;13.87;;
71814;SDS011;59659;41.520;23.794;2022-09-02T05:43:17;25.80;;;13.70;;
71814;SDS011;59659;41.520;23.794;2022-09-02T05:44:29;24.37;;;13.70;;
71814;SDS011;59659;41.520;23.794;2022-09-02T05:45:41;25.80;;;12.67;;
71814;SDS011;59659;41.520;23.794;2022-09-02T05:46:53;21.73;;;12.83;;
71814;SDS011;59659;41.520;23.794;2022-09-02T05:48:05;22.90;;;12.80;;
71814;SDS011;59659;41.520;23.794;2022-09-02T05:49:37;19.83;;;11.93;;
71814;SDS011;59659;41.520;23.794;2022-09-02T05:50:48;20.60;;;11.40;;
71814;SDS011;59659;41.520;23.794;2022-09-02T05:52:08;29.00;;;13.87;;
71814;SDS011;59659;41.520;23.794;2022-09-02T05:53:20;24.00;;;12.37;;
71814;SDS011;59659;41.520;23.794;2022-09-02T05:54:32;19.67;;;11.87;;
71814;SDS011;59659;41.520;23.794;2022-09-02T05:55:44;20.17;;;12.17;;
71814;SDS011;59659;41.520;23.794;2022-09-02T05:56:57;19.27;;;12.30;;
71814;SDS011;59659;41.520;23.794;2022-09-02T05:58:09;21.47;;;11.40;;
71814;SDS011;59659;41.520;23.794;2022-09-02T05:59:21;24.87;;;13.13;;
71814;SDS011;59659;41.520;23.794;2022-09-02T06:00:33;23.90;;;14.37;;
71814;SDS011;59659;41.520;23.794;2022-09-02T06:01:44;23.90;;;12.43;;
71814;SDS011;59659;41.520;23.794;2022-09-02T06:02:56;20.67;;;13.00;;
71814;SDS011;59659;41.520;23.794;2022-09-02T06:04:08;23.43;;;13.10;;
71814;SDS011;59659;41.520;23.794;2022-09-02T06:05:20;20.30;;;12.20;;
71814;SDS011;59659;41.520;23.794;2022-09-02T06:06:33;27.37;;;14.60;;
71814;SDS011;59659;41.520;23.794;2022-09-02T06:07:44;27.20;;;13.80;;
71814;SDS011;59659;41.520;23.794;2022-09-02T06:08:56;23.80;;;13.23;;
71814;SDS011;59659;41.520;23.794;2022-09-02T06:10:08;20.23;;;11.83;;
71814;SDS011;59659;41.520;23.794;2022-09-02T06:11:20;20.10;;;12.33;;
71814;SDS011;59659;41.520;23.794;2022-09-02T06:12:32;21.33;;;11.70;;
71814;SDS011;59659;41.520;23.794;2022-09-02T06:13:44;19.97;;;13.17;;
71814;SDS011;59659;41.520;23.794;2022-09-02T06:14:56;20.93;;;13.83;;
71814;SDS011;59659;41.520;23.794;2022-09-02T06:16:08;25.90;;;13.20;;
71814;SDS011;59659;41.520;23.794;2022-09-02T06:17:20;23.47;;;13.77;;
71814;SDS011;59659;41.520;23.794;2022-09-02T06:18:32;20.17;;;12.97;;
71814;SDS011;59659;41.520;23.794;2022-09-02T06:19:43;29.50;;;15.33;;
71814;SDS011;59659;41.520;23.794;2022-09-02T06:20:55;22.37;;;13.70;;
71814;SDS011;59659;41.520;23.794;2022-09-02T06:22:07;24.03;;;13.70;;
71814;SDS011;59659;41.520;23.794;2022-09-02T06:23:21;28.83;;;13.30;;
71814;SDS011;59659;41.520;23.794;2022-09-02T06:24:33;24.37;;;14.80;;
71814;SDS011;59659;41.520;23.794;2022-09-02T06:25:45;28.53;;;13.23;;
71814;SDS011;59659;41.520;23.794;2022-09-02T06:26:57;18.30;;;11.83;;
71814;SDS011;59659;41.520;23.794;2022-09-02T06:28:09;22.10;;;12.40;;
71814;SDS011;59659;41.520;23.794;2022-09-02T06:29:21;21.43;;;12.90;;
71814;SDS011;59659;41.520;23.794;2022-09-02T06:30:34;22.13;;;13.87;;
71814;SDS011;59659;41.520;23.794;2022-09-02T06:31:46;25.20;;;13.03;;
71814;SDS011;59659;41.520;23.794;2022-09-02T06:32:58;21.27;;;13.80;;
71814;SDS011;59659;41.520;23.794;2022-09-02T06:34:13;23.23;;;13.00;;
71814;SDS011;59659;41.520;23.794;2022-09-02T06:35:26;21.03;;;12.50;;
71814;SDS011;59659;41.520;23.794;2022-09-02T06:36:38;25.20;;;14.07;;
71814;SDS011;59659;41.520;23.794;2022-09-02T06:37:49;22.27;;;14.33;;
71814;SDS011;59659;41.520;23.794;2022-09-02T06:39:01;24.33;;;14.47;;
71814;SDS011;59659;41.520;23.794;2022-09-02T06:40:13;23.70;;;14.33;;
71814;SDS011;59659;41.520;23.794;2022-09-02T06:41:27;25.10;;;14.10;;
71814;SDS011;59659;41.520;23.794;2022-09-02T06:42:39;24.67;;;14.33;;
71814;SDS011;59659;41.520;23.794;2022-09-02T06:43:50;23.00;;;13.50;;
71814;SDS011;59659;41.520;23.794;2022-09-02T06:45:04;23.00;;;13.83;;
71814;SDS011;59659;41.520;23.794;2022-09-02T06:46:17;23.73;;;13.87;;
71814;SDS011;59659;41.520;23.794;2022-09-02T06:47:28;23.80;;;13.57;;
71814;SDS011;59659;41.520;23.794;2022-09-02T06:48:41;21.23;;;13.30;;
71814;SDS011;59659;41.520;23.794;2022-09-02T06:49:53;20.70;;;13.40;;
71814;SDS011;59659;41.520;23.794;2022-09-02T06:51:05;24.43;;;13.10;;
71814;SDS011;59659;41.520;23.794;2022-09-02T06:52:16;21.73;;;14.13;;
71814;SDS011;59659;41.520;23.794;2022-09-02T06:53:28;27.03;;;14.97;;
71814;SDS011;59659;41.520;23.794;2022-09-02T06:54:39;34.30;;;16.93;;
71814;SDS011;59659;41.520;23.794;2022-09-02T06:55:51;22.77;;;14.60;;
71814;SDS011;59659;41.520;23.794;2022-09-02T06:57:03;25.37;;;13.67;;
71814;SDS011;59659;41.520;23.794;2022-09-02T06:58:14;27.37;;;15.00;;
71814;SDS011;59659;41.520;23.794;2022-09-02T06:59:26;31.07;;;13.87;;
71814;SDS011;59659;41.520;23.794;2022-09-02T07:00:37;19.47;;;12.70;;
71814;SDS011;59659;41.520;23.794;2022-09-02T07:01:49;27.27;;;13.93;;